createdAt,value
2019-05-16T00:00:11.950Z,91989.77
2019-05-16T00:02:42.783Z,92001.72
2019-05-16T00:05:12.983Z,92015.19
2019-05-16T00:07:42.790Z,92015.73
2019-05-16T00:10:12.722Z,91992.96
2019-05-16T00:12:42.439Z,92025.56
2019-05-16T00:15:12.599Z,92116.35
2019-05-16T00:17:44.232Z,92063.66
2019-05-16T00:20:13.973Z,92061.70
2019-05-16T00:22:43.786Z,92130.48
2019-05-16T00:25:13.999Z,92131.12
2019-05-16T00:27:48.149Z,92098.77
2019-05-16T00:30:18.406Z,92076.39
2019-05-16T00:32:49.599Z,92125.48
2019-05-16T00:35:19.350Z,92086.40
2019-05-16T00:37:49.125Z,92128.47
2019-05-16T00:40:19.817Z,92109.33
2019-05-16T00:42:49.702Z,92147.84
2019-05-16T00:45:19.408Z,92158.62
2019-05-16T00:47:49.283Z,92079.73
2019-05-16T00:50:19.415Z,92028.42
2019-05-16T00:52:49.558Z,92013.66
2019-05-16T00:55:22.104Z,92025.36
2019-05-16T00:57:52.734Z,92003.44
2019-05-16T01:00:49.767Z,92003.94
2019-05-16T01:03:20.380Z,92021.19
2019-05-16T01:05:50.196Z,92050.20
2019-05-16T01:08:19.996Z,92082.53
2019-05-16T01:10:51.438Z,92147.58
2019-05-16T01:13:22.025Z,92167.02
2019-05-16T01:15:51.801Z,92077.94
2019-05-16T01:18:21.545Z,92070.55
2019-05-16T01:20:51.265Z,92029.83
2019-05-16T01:23:22.828Z,92112.42
2019-05-16T01:25:52.882Z,92297.58
2019-05-16T01:28:22.622Z,92331.97
2019-05-16T01:30:52.424Z,92294.56
2019-05-16T01:33:24.977Z,92231.23
2019-05-16T01:35:58.282Z,92137.95
2019-05-16T01:38:29.405Z,92161.73
2019-05-16T01:40:59.360Z,92159.02
2019-05-16T01:43:29.115Z,92074.22
2019-05-16T01:45:58.945Z,92049.59
2019-05-16T01:48:29.758Z,92106.84
2019-05-16T01:50:59.525Z,92053.10
2019-05-16T01:53:29.768Z,92132.09
2019-05-16T01:56:02.024Z,92230.80
2019-05-16T01:58:32.070Z,92193.70
2019-05-16T02:01:12.377Z,92232.81
2019-05-16T02:03:35.431Z,92237.52
2019-05-16T02:06:05.288Z,92272.77
2019-05-16T02:08:35.271Z,92221.98
2019-05-16T02:11:05.011Z,92274.22
2019-05-16T02:13:35.164Z,92303.89
2019-05-16T02:16:05.028Z,92275.06
2019-05-16T02:18:34.899Z,92268.47
2019-05-16T02:21:04.650Z,92276.33
2019-05-16T02:23:34.804Z,92212.07
2019-05-16T02:26:04.603Z,92191.82
2019-05-16T02:28:40.191Z,92192.67
2019-05-16T02:31:07.172Z,92105.86
2019-05-16T02:33:36.848Z,92041.38
2019-05-16T02:36:10.719Z,92122.60
2019-05-16T02:38:42.229Z,92094.95
2019-05-16T02:41:11.331Z,92155.04
2019-05-16T02:43:42.041Z,92214.17
2019-05-16T02:46:12.350Z,92242.11
2019-05-16T02:48:42.510Z,92159.70
2019-05-16T02:51:12.241Z,92304.08
2019-05-16T02:53:44.163Z,92367.94
2019-05-16T02:56:14.493Z,92380.95
2019-05-16T02:58:46.289Z,92362.48
2019-05-16T03:01:16.893Z,92392.44
2019-05-16T03:03:46.990Z,92410.00
2019-05-16T03:06:16.805Z,92365.19
2019-05-16T03:08:47.332Z,92301.27
2019-05-16T03:11:21.114Z,92227.20
2019-05-16T03:13:51.355Z,92338.44
2019-05-16T03:16:22.198Z,92185.67
2019-05-16T03:18:54.241Z,92192.78
2019-05-16T03:21:27.307Z,92181.42
2019-05-16T03:24:00.632Z,92180.25
2019-05-16T03:26:31.577Z,92203.66
2019-05-16T03:29:01.809Z,92131.16
2019-05-16T03:31:34.222Z,92119.88
2019-05-16T03:34:07.294Z,92067.36
2019-05-16T03:36:35.403Z,92054.55
2019-05-16T03:39:06.818Z,92031.30
2019-05-16T03:41:36.884Z,92060.25
2019-05-16T03:44:06.789Z,92039.25
2019-05-16T03:46:36.592Z,92054.32
2019-05-16T03:49:06.348Z,92071.94
2019-05-16T03:51:36.049Z,92100.40
2019-05-16T03:54:05.867Z,92060.40
2019-05-16T03:56:36.486Z,92068.93
2019-05-16T03:59:06.230Z,92072.68
2019-05-16T04:01:35.990Z,92044.98
2019-05-16T04:04:06.324Z,92075.30
2019-05-16T04:06:36.054Z,92208.34
2019-05-16T04:09:07.924Z,92218.34
2019-05-16T04:11:37.979Z,92202.78
2019-05-16T04:14:10.632Z,92230.27
2019-05-16T04:16:41.405Z,92232.91
2019-05-16T04:19:11.869Z,92312.13
2019-05-16T04:21:42.550Z,92288.67
2019-05-16T04:24:12.750Z,92348.19
2019-05-16T04:26:43.636Z,92521.73
2019-05-16T04:29:13.354Z,93046.39
2019-05-16T04:31:43.325Z,93252.47
2019-05-16T04:34:13.068Z,93416.19
2019-05-16T04:36:43.701Z,93490.67
2019-05-16T04:39:13.503Z,93520.44
2019-05-16T04:41:44.328Z,93508.17
2019-05-16T04:44:14.546Z,93535.70
2019-05-16T04:46:44.447Z,93565.79
2019-05-16T04:49:14.181Z,93533.80
2019-05-16T04:51:44.236Z,93523.31
2019-05-16T04:54:14.005Z,93573.82
2019-05-16T04:56:43.753Z,93589.83
2019-05-16T04:59:20.694Z,93628.82
2019-05-16T05:01:51.477Z,93660.40
2019-05-16T05:04:21.534Z,93659.59
2019-05-16T05:06:55.767Z,93596.77
2019-05-16T05:09:25.187Z,93622.63
2019-05-16T05:11:54.951Z,93616.73
2019-05-16T05:14:26.137Z,93568.11
2019-05-16T05:16:55.984Z,93542.88
2019-05-16T05:19:25.557Z,93566.23
2019-05-16T05:21:55.362Z,93513.67
2019-05-16T05:24:25.349Z,93428.02
2019-05-16T05:26:55.025Z,93313.73
2019-05-16T05:29:27.416Z,93297.19
2019-05-16T05:31:57.198Z,93338.55
2019-05-16T05:34:26.904Z,93339.30
2019-05-16T05:37:00.313Z,93365.73
2019-05-16T05:39:30.288Z,93405.72
2019-05-16T05:42:00.222Z,93335.03
2019-05-16T05:44:32.397Z,93369.51
2019-05-16T05:47:02.215Z,93415.57
2019-05-16T05:49:32.283Z,93447.09
2019-05-16T05:52:04.506Z,93486.99
2019-05-16T05:54:34.302Z,93506.20
2019-05-16T05:57:05.622Z,93531.11
2019-05-16T05:59:35.846Z,93563.59
2019-05-16T06:02:05.656Z,93574.44
2019-05-16T06:04:36.535Z,93577.73
2019-05-16T06:07:06.253Z,93572.55
2019-05-16T06:09:49.782Z,93571.70
2019-05-16T06:12:10.328Z,93529.14
2019-05-16T06:14:41.873Z,93524.56
2019-05-16T06:17:11.478Z,93551.44
2019-05-16T06:19:41.588Z,93560.55
2019-05-16T06:22:11.318Z,93551.02
2019-05-16T06:24:41.676Z,93516.95
2019-05-16T06:27:11.524Z,93551.39
2019-05-16T06:29:41.227Z,93595.19
2019-05-16T06:32:11.038Z,93588.78
2019-05-16T06:34:43.485Z,93596.08
2019-05-16T06:37:13.829Z,93649.00
2019-05-16T06:39:45.415Z,93686.11
2019-05-16T06:42:15.547Z,93736.84
2019-05-16T06:44:47.055Z,93771.63
2019-05-16T06:47:22.805Z,93775.73
2019-05-16T06:49:51.056Z,93788.70
2019-05-16T06:52:20.893Z,93801.55
2019-05-16T06:54:53.750Z,93771.09
2019-05-16T06:57:22.121Z,93752.17
2019-05-16T06:59:52.021Z,93697.01
2019-05-16T07:02:30.336Z,93628.55
2019-05-16T07:04:54.692Z,93564.28
2019-05-16T07:07:24.544Z,93472.45
2019-05-16T07:10:01.702Z,93362.13
2019-05-16T07:12:31.495Z,93285.46
2019-05-16T07:15:03.571Z,93089.16
2019-05-16T07:17:33.975Z,92941.21
2019-05-16T07:20:03.827Z,92854.13
2019-05-16T07:22:33.632Z,92703.12
2019-05-16T07:25:04.641Z,92720.70
2019-05-16T07:27:34.825Z,92648.13
2019-05-16T07:30:06.985Z,92525.63
2019-05-16T07:32:36.932Z,92206.81
2019-05-16T07:35:07.072Z,92114.95
2019-05-16T07:37:36.854Z,92090.79
2019-05-16T07:40:16.013Z,91884.05
2019-05-16T07:42:40.311Z,91881.69
2019-05-16T07:45:11.357Z,91808.22
2019-05-16T07:47:41.924Z,92268.66
2019-05-16T07:50:13.469Z,92508.58
2019-05-16T07:52:43.340Z,92623.63
2019-05-16T07:55:13.392Z,92710.19
2019-05-16T07:57:44.406Z,92696.01
2019-05-16T08:00:14.586Z,92836.70
2019-05-16T08:02:44.453Z,92954.52
2019-05-16T08:05:14.320Z,92931.72
2019-05-16T08:07:44.133Z,93032.31
2019-05-16T08:10:33.020Z,93031.78
2019-05-16T08:12:47.325Z,93028.66
2019-05-16T08:15:17.235Z,92933.98
2019-05-16T08:17:46.977Z,93096.70
2019-05-16T08:20:18.116Z,92923.20
2019-05-16T08:22:50.753Z,92830.75
2019-05-16T08:25:20.783Z,92712.80
2019-05-16T08:27:51.991Z,92679.44
2019-05-16T08:30:25.062Z,92522.50
2019-05-16T08:32:54.945Z,92384.77
2019-05-16T08:35:24.744Z,92281.02
2019-05-16T08:37:54.634Z,92149.41
2019-05-16T08:40:24.475Z,92076.72
2019-05-16T08:42:54.222Z,92015.96
2019-05-16T08:45:24.022Z,91896.21
2019-05-16T08:47:53.796Z,91781.52
2019-05-16T08:50:24.502Z,91340.41
2019-05-16T08:52:54.372Z,91180.14
2019-05-16T08:55:24.105Z,91132.83
2019-05-16T08:57:53.898Z,90961.30
2019-05-16T09:00:24.411Z,91022.52
2019-05-16T09:02:54.558Z,91117.06
2019-05-16T09:05:24.277Z,90710.08
2019-05-16T09:08:00.629Z,90382.23
2019-05-16T09:12:57.398Z,91400.93
2019-05-16T09:15:27.508Z,91978.22
2019-05-16T09:18:00.334Z,91724.55
2019-05-16T09:20:31.138Z,91252.28
2019-05-16T09:23:00.961Z,90865.82
2019-05-16T09:25:30.970Z,90706.83
2019-05-16T09:28:01.201Z,91185.62
2019-05-16T09:30:31.115Z,91559.66
2019-05-16T09:33:00.896Z,91798.00
2019-05-16T09:35:30.744Z,92287.06
2019-05-16T09:38:03.338Z,92316.19
2019-05-16T09:40:33.104Z,92355.58
2019-05-16T09:43:03.610Z,92475.42
2019-05-16T09:45:34.609Z,92417.91
2019-05-16T09:48:08.083Z,92288.05
2019-05-16T09:50:38.230Z,92293.56
2019-05-16T09:53:08.049Z,92200.55
2019-05-16T09:55:37.832Z,91950.23
2019-05-16T09:58:07.562Z,91555.52
2019-05-16T10:00:37.601Z,91270.66
2019-05-16T10:03:07.498Z,91241.53
2019-05-16T10:05:39.883Z,91278.05
2019-05-16T10:08:09.806Z,91213.60
2019-05-16T10:10:40.532Z,91079.69
2019-05-16T10:13:10.706Z,90895.33
2019-05-16T10:15:41.475Z,90852.65
2019-05-16T10:18:11.217Z,90811.72
2019-05-16T10:20:43.473Z,90652.73
2019-05-16T10:23:14.616Z,90616.78
2019-05-16T10:25:47.671Z,90722.11
2019-05-16T10:28:19.964Z,90615.67
2019-05-16T10:30:50.190Z,90721.22
2019-05-16T10:33:20.146Z,90762.30
2019-05-16T10:35:50.202Z,90926.31
2019-05-16T10:38:19.919Z,91690.55
2019-05-16T10:40:51.633Z,91568.41
2019-05-16T10:43:26.308Z,91774.78
2019-05-16T10:45:55.363Z,91760.27
2019-05-16T10:48:27.026Z,91776.96
2019-05-16T10:50:57.714Z,92026.88
2019-05-16T10:53:57.553Z,92139.42
2019-05-16T10:55:59.358Z,92234.31
2019-05-16T10:58:37.072Z,92234.66
2019-05-16T11:01:22.388Z,92270.68
2019-05-16T11:03:32.446Z,92400.53
2019-05-16T11:06:08.392Z,92301.27
2019-05-16T11:08:37.178Z,92276.73
2019-05-16T11:11:10.959Z,92169.35
2019-05-16T11:13:42.356Z,91998.33
2019-05-16T11:16:12.149Z,91838.67
2019-05-16T11:18:41.926Z,91691.17
2019-05-16T11:21:11.792Z,91664.41
2019-05-16T11:23:43.855Z,91690.55
2019-05-16T11:26:13.815Z,91781.05
2019-05-16T11:28:43.636Z,91843.98
2019-05-16T11:31:13.419Z,91784.70
2019-05-16T11:33:43.192Z,91722.68
2019-05-16T11:36:13.213Z,91697.60
2019-05-16T11:38:47.591Z,91785.83
2019-05-16T11:41:16.904Z,91755.05
2019-05-16T11:43:47.389Z,91555.27
2019-05-16T11:46:17.413Z,91344.05
2019-05-16T11:48:48.875Z,91213.55
2019-05-16T11:51:19.154Z,91204.47
2019-05-16T11:53:49.211Z,91339.42
2019-05-16T11:56:18.960Z,91600.77
2019-05-16T11:58:48.759Z,91735.03
2019-05-16T12:01:20.637Z,91877.31
2019-05-16T12:03:50.398Z,91947.97
2019-05-16T12:06:22.458Z,92047.75
2019-05-16T12:08:55.690Z,92101.24
2019-05-16T12:11:27.502Z,92107.41
2019-05-16T12:13:58.323Z,92114.22
2019-05-16T12:16:31.010Z,92145.51
2019-05-16T12:19:00.736Z,92311.13
2019-05-16T12:21:30.924Z,92349.54
2019-05-16T12:24:01.106Z,92402.10
2019-05-16T12:26:30.860Z,92543.84
2019-05-16T12:29:00.702Z,92437.98
2019-05-16T12:31:32.551Z,92379.50
2019-05-16T12:34:02.070Z,92463.26
2019-05-16T12:36:32.739Z,92487.97
2019-05-16T12:39:02.782Z,92423.72
2019-05-16T12:41:32.567Z,92412.81
2019-05-16T12:44:02.378Z,92322.34
2019-05-16T12:46:32.109Z,92310.00
2019-05-16T12:49:07.215Z,92380.70
2019-05-16T12:51:37.071Z,92323.62
2019-05-16T12:54:08.818Z,92233.18
2019-05-16T12:56:38.626Z,92347.47
2019-05-16T12:59:11.021Z,92439.23
2019-05-16T13:01:41.670Z,92229.74
2019-05-16T13:04:14.203Z,92205.95
2019-05-16T13:06:46.957Z,92254.56
2019-05-16T13:09:18.538Z,92230.97
2019-05-16T13:11:48.273Z,92027.16
2019-05-16T13:14:18.673Z,92171.10
2019-05-16T13:16:48.749Z,92211.36
2019-05-16T13:19:19.550Z,92219.53
2019-05-16T13:21:49.333Z,92314.55
2019-05-16T13:24:20.458Z,92519.30
2019-05-16T13:26:50.370Z,92609.52
2019-05-16T13:29:20.209Z,92691.63
2019-05-16T13:31:49.995Z,92782.56
2019-05-16T13:34:19.784Z,92898.87
2019-05-16T13:36:49.601Z,92960.31
2019-05-16T13:39:19.342Z,93030.09
2019-05-16T13:41:50.111Z,93006.15
2019-05-16T13:44:23.192Z,93066.50
2019-05-16T13:46:53.174Z,93137.62
2019-05-16T13:49:23.796Z,93187.09
2019-05-16T13:51:53.589Z,93213.78
2019-05-16T13:54:23.791Z,93238.22
2019-05-16T13:56:53.831Z,93237.83
2019-05-16T13:59:23.633Z,93259.05
2019-05-16T14:01:53.415Z,93290.67
2019-05-16T14:04:23.165Z,93306.59
2019-05-16T14:06:55.599Z,93321.69
2019-05-16T14:09:26.855Z,93339.00
2019-05-16T14:11:57.015Z,93343.77
2019-05-16T14:14:37.198Z,93349.50
2019-05-16T14:17:03.410Z,93351.78
2019-05-16T14:19:33.195Z,93359.67
2019-05-16T14:22:03.033Z,93382.25
2019-05-16T14:24:32.835Z,93394.30
2019-05-16T14:27:06.697Z,93422.26
2019-05-16T14:29:37.795Z,93454.81
2019-05-16T14:32:10.184Z,93481.55
2019-05-16T14:34:40.656Z,93476.53
2019-05-16T14:37:10.287Z,93501.16
2019-05-16T14:39:40.447Z,93500.96
2019-05-16T14:42:10.196Z,93512.06
2019-05-16T14:44:59.696Z,93514.06
2019-05-16T14:47:11.815Z,93511.62
2019-05-16T14:49:41.605Z,93519.23
2019-05-16T14:52:13.845Z,93518.91
2019-05-16T14:54:43.551Z,93512.55
2019-05-16T14:57:13.317Z,93522.31
2019-05-16T14:59:43.216Z,93520.02
2019-05-16T15:02:12.989Z,93515.52
2019-05-16T15:04:42.695Z,93522.03
2019-05-16T15:07:12.539Z,93505.78
2019-05-16T15:09:42.240Z,93516.57
2019-05-16T15:12:12.022Z,93525.50
2019-05-16T15:14:45.333Z,93509.78
2019-05-16T15:17:16.736Z,93532.11
2019-05-16T15:19:46.906Z,93519.36
2019-05-16T15:22:16.961Z,93536.77
2019-05-16T15:24:46.813Z,93519.70
2019-05-16T15:27:17.039Z,93519.88
2019-05-16T15:29:48.150Z,93508.81
2019-05-16T15:32:18.512Z,93518.11
2019-05-16T15:34:48.364Z,93512.73
2019-05-16T15:37:18.193Z,93523.00
2019-05-16T15:39:47.954Z,93536.76
2019-05-16T15:42:18.254Z,93543.69
2019-05-16T15:44:48.224Z,93531.08
2019-05-16T15:47:18.358Z,93528.36
2019-05-16T15:49:48.024Z,93522.73
2019-05-16T15:52:18.413Z,93519.97
2019-05-16T15:54:49.362Z,93505.98
2019-05-16T15:57:19.093Z,93522.44
2019-05-16T15:59:48.875Z,93503.03
2019-05-16T16:02:18.637Z,93461.17
2019-05-16T16:04:48.373Z,93465.99
2019-05-16T16:07:18.355Z,93501.08
2019-05-16T16:09:47.882Z,93478.55
2019-05-16T16:12:17.673Z,93495.30
2019-05-16T16:14:47.456Z,93488.84
2019-05-16T16:17:17.777Z,93450.05
2019-05-16T16:19:47.719Z,93453.06
2019-05-16T16:22:17.851Z,93461.02
2019-05-16T16:24:47.973Z,93465.31
2019-05-16T16:27:17.911Z,93418.51
2019-05-16T16:29:48.188Z,93438.37
2019-05-16T16:32:18.053Z,93482.42
2019-05-16T16:34:48.926Z,93486.22
2019-05-16T16:37:19.113Z,93486.44
2019-05-16T16:39:49.031Z,93515.03
2019-05-16T16:42:21.430Z,93503.38
2019-05-16T16:44:51.537Z,93509.84
2019-05-16T16:47:21.331Z,93511.95
2019-05-16T16:49:51.072Z,93512.05
2019-05-16T16:52:20.855Z,93509.17
2019-05-16T16:54:50.676Z,93490.47
2019-05-16T16:57:20.412Z,93494.94
2019-05-16T16:59:50.191Z,93478.59
2019-05-16T17:02:19.932Z,93501.08
2019-05-16T17:04:51.440Z,93504.80
2019-05-16T17:07:20.969Z,93478.35
2019-05-16T17:09:50.691Z,93486.73
2019-05-16T17:12:20.430Z,93482.13
2019-05-16T17:14:50.193Z,93505.71
2019-05-16T17:17:19.931Z,93505.72
2019-05-16T17:19:49.589Z,93491.37
2019-05-16T17:22:20.965Z,93464.80
2019-05-16T17:24:50.840Z,93315.13
2019-05-16T17:27:20.594Z,93456.48
2019-05-16T17:29:50.438Z,93463.97
2019-05-16T17:32:20.084Z,93482.08
2019-05-16T17:34:49.820Z,93500.99
2019-05-16T17:37:19.630Z,93501.22
2019-05-16T17:39:49.450Z,93510.44
2019-05-16T17:42:19.208Z,93493.58
2019-05-16T17:44:49.388Z,93479.45
2019-05-16T17:47:19.132Z,93468.98
2019-05-16T17:49:51.251Z,93486.39
2019-05-16T17:52:21.090Z,93516.23
2019-05-16T17:54:53.251Z,93517.91
2019-05-16T17:57:24.391Z,93492.23
2019-05-16T17:59:54.234Z,93486.58
2019-05-16T18:02:23.965Z,93472.50
2019-05-16T18:04:53.684Z,93506.30
2019-05-16T18:07:23.512Z,93484.66
2019-05-16T18:09:53.220Z,93476.58
2019-05-16T18:12:22.971Z,93473.88
2019-05-16T18:14:53.251Z,93494.84
2019-05-16T18:17:23.331Z,93472.94
2019-05-16T18:19:53.352Z,93495.59
2019-05-16T18:22:24.058Z,93477.98
2019-05-16T18:24:53.741Z,93478.13
2019-05-16T18:27:23.523Z,93486.14
2019-05-16T18:29:58.442Z,93463.80
2019-05-16T18:32:33.543Z,93477.78
2019-05-16T18:35:03.731Z,93441.22
2019-05-16T18:37:35.570Z,93472.72
2019-05-16T18:40:09.372Z,93444.81
2019-05-16T18:42:49.772Z,93462.37
2019-05-16T18:45:19.851Z,93490.77
2019-05-16T18:47:52.154Z,93443.48
2019-05-16T18:50:22.020Z,93460.66
2019-05-16T18:52:52.969Z,93445.20
2019-05-16T18:55:22.883Z,93474.38
2019-05-16T18:57:52.764Z,93424.63
2019-05-16T19:00:24.010Z,93431.44
2019-05-16T19:02:53.909Z,93473.64
2019-05-16T19:05:26.457Z,93492.42
2019-05-16T19:08:00.210Z,93464.56
2019-05-16T19:10:30.290Z,93457.56
2019-05-16T19:13:01.152Z,93498.70
2019-05-16T19:15:33.410Z,93463.94
2019-05-16T19:18:03.391Z,93477.33
2019-05-16T19:20:33.290Z,93509.33
2019-05-16T19:23:07.424Z,93514.86
2019-05-16T19:25:37.810Z,93497.07
2019-05-16T19:28:07.671Z,93489.52
2019-05-16T19:30:37.752Z,93496.58
2019-05-16T19:33:08.849Z,93455.46
2019-05-16T19:35:38.710Z,93447.05
2019-05-16T19:38:11.611Z,93437.70
2019-05-16T19:40:41.992Z,93438.11
2019-05-16T19:43:12.569Z,93435.73
2019-05-16T19:45:42.358Z,93431.56
2019-05-16T19:48:12.161Z,93447.27
2019-05-16T19:50:41.951Z,93464.84
2019-05-16T19:53:11.650Z,93472.51
2019-05-16T19:55:41.541Z,93437.72
2019-05-16T19:58:13.182Z,93423.41
2019-05-16T20:00:42.960Z,93422.86
2019-05-16T20:03:12.839Z,93442.41
2019-05-16T20:05:42.884Z,93430.22
2019-05-16T20:08:12.512Z,93409.55
2019-05-16T20:10:42.614Z,93448.80
2019-05-16T20:13:12.349Z,93475.63
2019-05-16T20:15:42.122Z,93429.48
2019-05-16T20:18:11.906Z,93417.77
2019-05-16T20:20:42.012Z,93428.33
2019-05-16T20:23:11.765Z,93398.91
2019-05-16T20:25:41.507Z,93401.23
2019-05-16T20:28:11.243Z,93390.13
2019-05-16T20:30:41.180Z,93383.80
2019-05-16T20:33:10.986Z,93371.94
2019-05-16T20:35:40.722Z,93355.41
2019-05-16T20:38:10.810Z,93352.23
2019-05-16T20:40:40.618Z,93379.91
2019-05-16T20:43:10.372Z,93365.05
2019-05-16T20:45:40.185Z,93370.55
2019-05-16T20:48:15.131Z,93374.67
2019-05-16T20:50:42.765Z,93364.41
2019-05-16T20:53:13.200Z,93359.16
2019-05-16T20:55:43.739Z,93373.95
2019-05-16T20:58:16.363Z,93340.95
2019-05-16T21:00:49.700Z,93351.70
2019-05-16T21:03:18.524Z,93355.80
2019-05-16T21:05:49.600Z,93339.84
2019-05-16T21:08:19.673Z,93344.49
2019-05-16T21:10:51.120Z,93314.56
2019-05-16T21:13:20.771Z,93319.93
2019-05-16T21:15:50.553Z,93309.05
2019-05-16T21:18:21.782Z,93296.83
2019-05-16T21:20:51.534Z,93278.72
2019-05-16T21:23:21.331Z,93289.58
2019-05-16T21:25:51.111Z,93286.25
2019-05-16T21:28:20.891Z,93284.94
2019-05-16T21:30:50.693Z,93076.76
2019-05-16T21:33:20.454Z,93261.90
2019-05-16T21:35:50.225Z,93275.32
2019-05-16T21:38:20.057Z,93272.14
2019-05-16T21:40:49.865Z,93266.34
2019-05-16T21:43:19.731Z,93261.59
2019-05-16T21:45:49.612Z,93258.80
2019-05-16T21:48:19.599Z,93237.27
2019-05-16T21:50:49.412Z,93228.83
2019-05-16T21:53:19.298Z,93240.02
2019-05-16T21:55:49.053Z,93206.48
2019-05-16T21:58:18.818Z,93218.66
2019-05-16T22:00:51.934Z,93212.64
2019-05-16T22:03:21.711Z,93217.58
2019-05-16T22:05:51.531Z,93209.95
2019-05-16T22:08:21.396Z,93204.63
2019-05-16T22:10:51.154Z,93188.58
2019-05-16T22:13:20.968Z,93181.19
2019-05-16T22:15:50.772Z,93191.31
2019-05-16T22:18:20.561Z,93192.42
2019-05-16T22:20:50.308Z,93180.84
2019-05-16T22:23:20.204Z,93187.69
2019-05-16T22:25:49.960Z,93168.81
2019-05-16T22:28:19.712Z,93128.98
2019-05-16T22:30:50.113Z,93126.86
2019-05-16T22:33:19.842Z,93134.53
2019-05-16T22:35:49.734Z,93140.47
2019-05-16T22:38:19.616Z,93138.69
2019-05-16T22:40:49.366Z,93151.13
2019-05-16T22:43:19.131Z,93137.26
2019-05-16T22:45:48.949Z,93131.50
2019-05-16T22:48:18.696Z,93118.75
2019-05-16T22:50:48.441Z,93132.20
2019-05-16T22:53:18.275Z,93128.02
2019-05-16T22:55:48.046Z,93115.28
2019-05-16T22:58:20.498Z,93112.48
2019-05-16T23:00:50.321Z,93108.20
2019-05-16T23:03:20.097Z,93089.19
2019-05-16T23:05:49.898Z,93091.81
2019-05-16T23:08:19.745Z,93082.42
2019-05-16T23:10:49.511Z,93088.93
2019-05-16T23:13:19.287Z,93082.42
2019-05-16T23:15:49.098Z,93070.09
2019-05-16T23:18:18.877Z,93039.95
2019-05-16T23:20:48.610Z,93049.59
2019-05-16T23:23:18.445Z,93045.06
2019-05-16T23:25:48.203Z,93045.91
2019-05-16T23:28:17.912Z,93019.34
2019-05-16T23:30:47.782Z,93013.45
2019-05-16T23:33:17.524Z,93003.78
2019-05-16T23:35:47.317Z,92981.58
2019-05-16T23:38:19.994Z,92984.31
2019-05-16T23:40:48.576Z,92982.05
2019-05-16T23:43:18.369Z,93000.91
2019-05-16T23:45:48.201Z,92995.41
2019-05-16T23:48:18.016Z,92973.87
2019-05-16T23:50:47.788Z,92964.57
2019-05-16T23:53:17.570Z,92962.27
2019-05-16T23:55:47.324Z,92959.74
2019-05-16T23:58:17.210Z,92949.91
